sensor_id;sensor_type;location;lat;lon;timestamp;pressure;altitude;pressure_sealevel;temperature;humidity
71504;BME280;59323;50.874;7.028;2022-08-21T00:00:40;101388.81;;;17.01;71.54
71504;BME280;59323;50.874;7.028;2022-08-21T00:03:07;101379.00;;;16.93;71.75
71504;BME280;59323;50.874;7.028;2022-08-21T00:05:44;101387.25;;;16.96;71.68
71504;BME280;59323;50.874;7.028;2022-08-21T00:08:10;101380.19;;;16.95;71.86
71504;BME280;59323;50.874;7.028;2022-08-21T00:10:36;101370.38;;;16.91;71.79
71504;BME280;59323;50.874;7.028;2022-08-21T00:13:04;101384.88;;;16.95;72.33
71504;BME280;59323;50.874;7.028;2022-08-21T00:15:31;101378.63;;;16.91;72.43
71504;BME280;59323;50.874;7.028;2022-08-21T00:17:57;101376.22;;;16.86;72.99
71504;BME280;59323;50.874;7.028;2022-08-21T00:20:25;101382.13;;;16.84;72.90
71504;BME280;59323;50.874;7.028;2022-08-21T00:22:51;101369.94;;;16.78;73.21
71504;BME280;59323;50.874;7.028;2022-08-21T00:25:18;101374.25;;;16.79;73.44
71504;BME280;59323;50.874;7.028;2022-08-21T00:27:44;101376.63;;;16.77;73.58
71504;BME280;59323;50.874;7.028;2022-08-21T00:30:12;101371.13;;;16.77;73.25
71504;BME280;59323;50.874;7.028;2022-08-21T00:32:39;101360.16;;;16.73;73.36
71504;BME280;59323;50.874;7.028;2022-08-21T00:35:14;101365.25;;;16.71;73.76
71504;BME280;59323;50.874;7.028;2022-08-21T00:37:40;101358.94;;;16.64;74.02
71504;BME280;59323;50.874;7.028;2022-08-21T00:40:11;101356.97;;;16.61;74.16
71504;BME280;59323;50.874;7.028;2022-08-21T00:42:37;101361.66;;;16.60;73.77
71504;BME280;59323;50.874;7.028;2022-08-21T00:45:04;101373.81;;;16.63;74.51
71504;BME280;59323;50.874;7.028;2022-08-21T00:47:29;101372.66;;;16.64;74.31
71504;BME280;59323;50.874;7.028;2022-08-21T00:49:55;101355.38;;;16.53;74.97
71504;BME280;59323;50.874;7.028;2022-08-21T00:52:27;101362.84;;;16.48;75.11
71504;BME280;59323;50.874;7.028;2022-08-21T00:54:54;101362.03;;;16.48;75.39
71504;BME280;59323;50.874;7.028;2022-08-21T00:57:24;101366.34;;;16.45;75.66
71504;BME280;59323;50.874;7.028;2022-08-21T00:59:52;101368.69;;;16.43;75.29
71504;BME280;59323;50.874;7.028;2022-08-21T01:02:19;101365.16;;;16.43;75.52
71504;BME280;59323;50.874;7.028;2022-08-21T01:04:45;101362.03;;;16.37;75.05
71504;BME280;59323;50.874;7.028;2022-08-21T01:07:11;101360.06;;;16.34;75.36
71504;BME280;59323;50.874;7.028;2022-08-21T01:09:37;101373.41;;;16.43;74.93
71504;BME280;59323;50.874;7.028;2022-08-21T01:12:03;101365.56;;;16.38;74.68
71504;BME280;59323;50.874;7.028;2022-08-21T01:14:30;101354.19;;;16.36;75.10
71504;BME280;59323;50.874;7.028;2022-08-21T01:16:56;101367.53;;;16.41;74.63
71504;BME280;59323;50.874;7.028;2022-08-21T01:19:24;101372.63;;;16.42;74.70
71504;BME280;59323;50.874;7.028;2022-08-21T01:21:51;101372.59;;;16.39;74.70
71504;BME280;59323;50.874;7.028;2022-08-21T01:24:16;101367.50;;;16.37;74.36
71504;BME280;59323;50.874;7.028;2022-08-21T01:26:43;101374.19;;;16.40;74.33
71504;BME280;59323;50.874;7.028;2022-08-21T01:29:16;101353.78;;;16.30;74.11
71504;BME280;59323;50.874;7.028;2022-08-21T01:31:45;101367.13;;;16.39;74.09
71504;BME280;59323;50.874;7.028;2022-08-21T01:34:11;101371.81;;;16.35;74.15
71504;BME280;59323;50.874;7.028;2022-08-21T01:36:36;101363.91;;;16.23;73.92
71504;BME280;59323;50.874;7.028;2022-08-21T01:39:03;101363.91;;;16.23;74.24
71504;BME280;59323;50.874;7.028;2022-08-21T01:41:29;101361.94;;;16.20;74.30
71504;BME280;59323;50.874;7.028;2022-08-21T01:43:54;101354.09;;;16.14;74.30
71504;BME280;59323;50.874;7.028;2022-08-21T01:46:20;101371.72;;;16.17;74.53
71504;BME280;59323;50.874;7.028;2022-08-21T01:48:45;101352.91;;;16.08;74.67
71504;BME280;59323;50.874;7.028;2022-08-21T01:51:10;101345.84;;;16.04;74.78
71504;BME280;59323;50.874;7.028;2022-08-21T01:53:36;101352.06;;;15.94;74.95
71504;BME280;59323;50.874;7.028;2022-08-21T01:56:09;101355.59;;;15.94;75.00
71504;BME280;59323;50.874;7.028;2022-08-21T01:58:35;101359.88;;;15.92;75.69
71504;BME280;59323;50.874;7.028;2022-08-21T02:01:02;101359.47;;;15.82;75.86
71504;BME280;59323;50.874;7.028;2022-08-21T02:03:28;101363.75;;;15.76;76.68
71504;BME280;59323;50.874;7.028;2022-08-21T02:05:54;101355.13;;;15.74;76.02
71504;BME280;59323;50.874;7.028;2022-08-21T02:08:19;101348.06;;;15.73;75.99
71504;BME280;59323;50.874;7.028;2022-08-21T02:10:48;101352.78;;;15.80;75.75
71504;BME280;59323;50.874;7.028;2022-08-21T02:13:14;101347.69;;;15.75;75.57
71504;BME280;59323;50.874;7.028;2022-08-21T02:15:39;101354.72;;;15.72;75.64
71504;BME280;59323;50.874;7.028;2022-08-21T02:18:05;101347.28;;;15.76;75.45
71504;BME280;59323;50.874;7.028;2022-08-21T02:20:38;101358.25;;;15.76;75.64
71504;BME280;59323;50.874;7.028;2022-08-21T02:23:05;101348.06;;;15.73;75.58
71504;BME280;59323;50.874;7.028;2022-08-21T02:25:32;101351.97;;;15.72;75.57
71504;BME280;59323;50.874;7.028;2022-08-21T02:27:59;101356.69;;;15.72;76.50
71504;BME280;59323;50.874;7.028;2022-08-21T02:30:28;101353.91;;;15.68;76.22
71504;BME280;59323;50.874;7.028;2022-08-21T02:32:54;101352.31;;;15.64;76.14
71504;BME280;59323;50.874;7.028;2022-08-21T02:35:20;101348.81;;;15.63;76.01
71504;BME280;59323;50.874;7.028;2022-08-21T02:37:55;101341.75;;;15.62;76.20
71504;BME280;59323;50.874;7.028;2022-08-21T02:40:24;101355.09;;;15.71;75.95
71504;BME280;59323;50.874;7.028;2022-08-21T02:42:50;101348.84;;;15.70;75.73
71504;BME280;59323;50.874;7.028;2022-08-21T02:45:16;101355.13;;;15.74;75.85
71504;BME280;59323;50.874;7.028;2022-08-21T02:47:54;101350.38;;;15.68;75.70
71504;BME280;59323;50.874;7.028;2022-08-21T02:50:26;101344.00;;;15.57;76.44
71504;BME280;59323;50.874;7.028;2022-08-21T02:52:52;101347.50;;;15.53;76.90
71504;BME280;59323;50.874;7.028;2022-08-21T02:55:19;101338.84;;;15.41;77.05
71504;BME280;59323;50.874;7.028;2022-08-21T02:57:46;101334.13;;;15.38;76.86
71504;BME280;59323;50.874;7.028;2022-08-21T03:00:12;101341.53;;;15.34;77.39
71504;BME280;59323;50.874;7.028;2022-08-21T03:02:38;101349.75;;;15.34;76.93
71504;BME280;59323;50.874;7.028;2022-08-21T03:05:06;101339.91;;;15.26;76.70
71504;BME280;59323;50.874;7.028;2022-08-21T03:07:32;101337.56;;;15.24;77.01
71504;BME280;59323;50.874;7.028;2022-08-21T03:09:57;101335.50;;;15.10;77.39
71504;BME280;59323;50.874;7.028;2022-08-21T03:12:24;101344.53;;;15.14;77.30
71504;BME280;59323;50.874;7.028;2022-08-21T03:14:49;101335.88;;;15.09;77.08
71504;BME280;59323;50.874;7.028;2022-08-21T03:17:14;101329.97;;;15.03;77.53
71504;BME280;59323;50.874;7.028;2022-08-21T03:19:40;101341.00;;;15.10;77.14
71504;BME280;59323;50.874;7.028;2022-08-21T03:22:05;101343.34;;;15.12;76.89
71504;BME280;59323;50.874;7.028;2022-08-21T03:24:31;101345.25;;;15.04;77.66
71504;BME280;59323;50.874;7.028;2022-08-21T03:26:56;101342.50;;;15.04;77.15
71504;BME280;59323;50.874;7.028;2022-08-21T03:29:22;101329.56;;;14.98;77.17
71504;BME280;59323;50.874;7.028;2022-08-21T03:31:47;101340.53;;;15.01;77.73
71504;BME280;59323;50.874;7.028;2022-08-21T03:34:13;101335.81;;;14.98;77.48
71504;BME280;59323;50.874;7.028;2022-08-21T03:36:39;101344.44;;;15.00;77.58
71504;BME280;59323;50.874;7.028;2022-08-21T03:39:04;101352.69;;;15.07;77.08
71504;BME280;59323;50.874;7.028;2022-08-21T03:41:30;101353.06;;;15.06;77.04
71504;BME280;59323;50.874;7.028;2022-08-21T03:43:55;101352.34;;;15.12;76.69
71504;BME280;59323;50.874;7.028;2022-08-21T03:46:21;101350.00;;;15.14;76.57
71504;BME280;59323;50.874;7.028;2022-08-21T03:48:46;101342.50;;;15.04;76.57
71504;BME280;59323;50.874;7.028;2022-08-21T03:51:12;101342.50;;;15.04;76.75
71504;BME280;59323;50.874;7.028;2022-08-21T03:53:37;101344.88;;;15.06;76.49
71504;BME280;59323;50.874;7.028;2022-08-21T03:56:03;101341.34;;;15.05;77.06
71504;BME280;59323;50.874;7.028;2022-08-21T03:58:29;101345.22;;;15.01;77.45
71504;BME280;59323;50.874;7.028;2022-08-21T04:00:58;101342.78;;;14.92;78.30
71504;BME280;59323;50.874;7.028;2022-08-21T04:03:24;101352.91;;;14.88;78.37
71504;BME280;59323;50.874;7.028;2022-08-21T04:05:50;101347.31;;;14.74;78.76
71504;BME280;59323;50.874;7.028;2022-08-21T04:08:16;101344.88;;;14.62;79.57
71504;BME280;59323;50.874;7.028;2022-08-21T04:10:46;101353.44;;;14.60;80.06
71504;BME280;59323;50.874;7.028;2022-08-21T04:13:12;101363.50;;;14.49;81.02
71504;BME280;59323;50.874;7.028;2022-08-21T04:15:38;101368.50;;;14.43;81.44
71504;BME280;59323;50.874;7.028;2022-08-21T04:18:04;101361.03;;;14.40;81.00
71504;BME280;59323;50.874;7.028;2022-08-21T04:20:30;101355.50;;;14.33;81.21
71504;BME280;59323;50.874;7.028;2022-08-21T04:22:55;101360.63;;;14.38;81.29
71504;BME280;59323;50.874;7.028;2022-08-21T04:25:22;101368.06;;;14.41;80.44
71504;BME280;59323;50.874;7.028;2022-08-21T04:27:48;101349.22;;;14.33;80.26
71504;BME280;59323;50.874;7.028;2022-08-21T04:30:15;101358.31;;;14.40;80.94
71504;BME280;59323;50.874;7.028;2022-08-21T04:32:46;101362.94;;;14.36;80.64
71504;BME280;59323;50.874;7.028;2022-08-21T04:35:13;101373.19;;;14.43;80.36
71504;BME280;59323;50.874;7.028;2022-08-21T04:37:39;101356.34;;;14.41;80.29
71504;BME280;59323;50.874;7.028;2022-08-21T04:40:05;101371.66;;;14.45;80.31
71504;BME280;59323;50.874;7.028;2022-08-21T04:42:32;101376.72;;;14.43;80.89
71504;BME280;59323;50.874;7.028;2022-08-21T04:44:58;101366.50;;;14.40;80.33
71504;BME280;59323;50.874;7.028;2022-08-21T04:47:23;101379.16;;;14.52;80.10
71504;BME280;59323;50.874;7.028;2022-08-21T04:49:50;101372.06;;;14.47;79.93
71504;BME280;59323;50.874;7.028;2022-08-21T04:52:19;101368.13;;;14.45;80.01
71504;BME280;59323;50.874;7.028;2022-08-21T04:54:47;101379.16;;;14.52;79.71
71504;BME280;59323;50.874;7.028;2022-08-21T04:57:15;101385.75;;;14.47;80.00
71504;BME280;59323;50.874;7.028;2022-08-21T04:59:46;101387.81;;;14.57;79.30
71504;BME280;59323;50.874;7.028;2022-08-21T05:02:12;101383.88;;;14.55;79.24
71504;BME280;59323;50.874;7.028;2022-08-21T05:04:44;101389.81;;;14.64;79.13
71504;BME280;59323;50.874;7.028;2022-08-21T05:07:15;101389.03;;;14.64;78.66
71504;BME280;59323;50.874;7.028;2022-08-21T05:09:42;101403.19;;;14.73;78.46
71504;BME280;59323;50.874;7.028;2022-08-21T05:12:08;101400.44;;;14.69;78.28
71504;BME280;59323;50.874;7.028;2022-08-21T05:14:34;101411.47;;;14.80;78.28
71504;BME280;59323;50.874;7.028;2022-08-21T05:17:01;101406.00;;;14.80;78.45
71504;BME280;59323;50.874;7.028;2022-08-21T05:19:26;101404.34;;;14.72;78.34
71504;BME280;59323;50.874;7.028;2022-08-21T05:21:52;101401.97;;;14.67;78.36
71504;BME280;59323;50.874;7.028;2022-08-21T05:24:18;101401.19;;;14.66;78.21
71504;BME280;59323;50.874;7.028;2022-08-21T05:26:43;101403.06;;;14.58;78.63
71504;BME280;59323;50.874;7.028;2022-08-21T05:29:09;101399.50;;;14.54;79.39
71504;BME280;59323;50.874;7.028;2022-08-21T05:31:36;101397.09;;;14.49;79.65
71504;BME280;59323;50.874;7.028;2022-08-21T05:34:01;101388.94;;;14.53;79.68
71504;BME280;59323;50.874;7.028;2022-08-21T05:36:27;101401.06;;;14.55;79.66
71504;BME280;59323;50.874;7.028;2022-08-21T05:38:52;101397.66;;;14.66;79.24
71504;BME280;59323;50.874;7.028;2022-08-21T05:41:17;101387.88;;;14.65;79.30
71504;BME280;59323;50.874;7.028;2022-08-21T05:43:43;101397.00;;;14.79;78.77
71504;BME280;59323;50.874;7.028;2022-08-21T05:46:08;101407.69;;;14.95;78.29
71504;BME280;59323;50.874;7.028;2022-08-21T05:48:35;101407.84;;;15.09;77.83
71504;BME280;59323;50.874;7.028;2022-08-21T05:51:09;101389.16;;;15.18;77.13
71504;BME280;59323;50.874;7.028;2022-08-21T05:53:35;101390.84;;;15.37;76.97
71504;BME280;59323;50.874;7.028;2022-08-21T05:56:02;101387.78;;;15.46;76.09
71504;BME280;59323;50.874;7.028;2022-08-21T05:58:30;101396.50;;;15.59;76.01
71504;BME280;59323;50.874;7.028;2022-08-21T06:00:56;101395.06;;;15.79;75.28
71504;BME280;59323;50.874;7.028;2022-08-21T06:03:26;101407.69;;;15.98;74.84
71504;BME280;59323;50.874;7.028;2022-08-21T06:05:53;101410.09;;;16.10;74.23
71504;BME280;59323;50.874;7.028;2022-08-21T06:08:19;101401.47;;;16.11;74.17
71504;BME280;59323;50.874;7.028;2022-08-21T06:10:46;101408.16;;;16.17;74.27
71504;BME280;59323;50.874;7.028;2022-08-21T06:13:12;101412.56;;;16.36;74.03
71504;BME280;59323;50.874;7.028;2022-08-21T06:15:39;101408.69;;;16.44;73.81
71504;BME280;59323;50.874;7.028;2022-08-21T06:18:04;101406.34;;;16.57;73.57
71504;BME280;59323;50.874;7.028;2022-08-21T06:20:30;101406.03;;;16.76;73.17
71504;BME280;59323;50.874;7.028;2022-08-21T06:22:57;101408.78;;;16.84;72.67
71504;BME280;59323;50.874;7.028;2022-08-21T06:25:22;101404.06;;;16.88;72.13
71504;BME280;59323;50.874;7.028;2022-08-21T06:27:48;101399.41;;;17.02;72.00
71504;BME280;59323;50.874;7.028;2022-08-21T06:30:14;101402.94;;;17.14;71.27
71504;BME280;59323;50.874;7.028;2022-08-21T06:32:39;101402.53;;;17.36;71.21
71504;BME280;59323;50.874;7.028;2022-08-21T06:35:05;101399.78;;;17.58;70.36
71504;BME280;59323;50.874;7.028;2022-08-21T06:37:31;101400.50;;;17.87;70.21
71504;BME280;59323;50.874;7.028;2022-08-21T06:39:56;101401.97;;;18.23;69.32
71504;BME280;59323;50.874;7.028;2022-08-21T06:42:22;101386.91;;;18.46;67.69
71504;BME280;59323;50.874;7.028;2022-08-21T06:44:47;101387.94;;;18.69;67.11
71504;BME280;59323;50.874;7.028;2022-08-21T06:47:13;101390.16;;;18.92;66.01
71504;BME280;59323;50.874;7.028;2022-08-21T06:49:39;101390.81;;;19.11;64.64
71504;BME280;59323;50.874;7.028;2022-08-21T06:52:09;101391.88;;;19.24;64.73
71504;BME280;59323;50.874;7.028;2022-08-21T06:54:35;101390.09;;;19.44;64.18
71504;BME280;59323;50.874;7.028;2022-08-21T06:57:01;101389.69;;;19.53;63.83
71504;BME280;59323;50.874;7.028;2022-08-21T06:59:26;101390.97;;;19.79;62.56
71504;BME280;59323;50.874;7.028;2022-08-21T07:01:52;101393.78;;;20.06;62.58
71504;BME280;59323;50.874;7.028;2022-08-21T07:04:17;101396.22;;;20.34;61.18
71504;BME280;59323;50.874;7.028;2022-08-21T07:06:43;101396.09;;;20.72;60.33
71504;BME280;59323;50.874;7.028;2022-08-21T07:09:08;101402.28;;;21.06;58.40
71504;BME280;59323;50.874;7.028;2022-08-21T07:11:36;101404.97;;;21.10;57.36
71504;BME280;59323;50.874;7.028;2022-08-21T07:14:02;101404.00;;;21.20;57.34
71504;BME280;59323;50.874;7.028;2022-08-21T07:16:27;101398.69;;;21.33;56.41
71504;BME280;59323;50.874;7.028;2022-08-21T07:18:53;101404.16;;;21.36;56.25
71504;BME280;59323;50.874;7.028;2022-08-21T07:21:18;101404.84;;;21.17;56.85
71504;BME280;59323;50.874;7.028;2022-08-21T07:23:47;101400.69;;;21.32;56.85
71504;BME280;59323;50.874;7.028;2022-08-21T07:26:15;101406.50;;;21.81;54.61
71504;BME280;59323;50.874;7.028;2022-08-21T07:28:41;101407.44;;;21.94;55.28
71504;BME280;59323;50.874;7.028;2022-08-21T07:31:08;101407.53;;;22.30;54.06
71504;BME280;59323;50.874;7.028;2022-08-21T07:33:35;101406.63;;;22.69;52.81
71504;BME280;59323;50.874;7.028;2022-08-21T07:36:01;101398.66;;;22.91;53.62
71504;BME280;59323;50.874;7.028;2022-08-21T07:38:27;101395.50;;;23.22;51.92
71504;BME280;59323;50.874;7.028;2022-08-21T07:40:54;101400.53;;;23.43;49.73
71504;BME280;59323;50.874;7.028;2022-08-21T07:43:20;101410.16;;;23.22;50.89
71504;BME280;59323;50.874;7.028;2022-08-21T07:45:47;101402.84;;;23.61;51.30
71504;BME280;59323;50.874;7.028;2022-08-21T07:48:14;101398.00;;;23.78;51.58
71504;BME280;59323;50.874;7.028;2022-08-21T07:50:39;101397.59;;;23.92;49.38
71504;BME280;59323;50.874;7.028;2022-08-21T07:53:06;101405.38;;;23.84;48.74
71504;BME280;59323;50.874;7.028;2022-08-21T07:55:32;101383.16;;;24.26;48.24
71504;BME280;59323;50.874;7.028;2022-08-21T07:57:58;101380.84;;;24.37;47.57
71504;BME280;59323;50.874;7.028;2022-08-21T08:00:28;101381.75;;;24.72;47.20
71504;BME280;59323;50.874;7.028;2022-08-21T08:03:05;101387.84;;;24.80;46.01
71504;BME280;59323;50.874;7.028;2022-08-21T08:05:31;101393.38;;;25.18;44.67
71504;BME280;59323;50.874;7.028;2022-08-21T08:07:57;101399.78;;;25.27;44.95
71504;BME280;59323;50.874;7.028;2022-08-21T08:10:24;101396.38;;;25.58;44.08
71504;BME280;59323;50.874;7.028;2022-08-21T08:12:50;101392.03;;;25.57;43.74
71504;BME280;59323;50.874;7.028;2022-08-21T08:15:25;101402.03;;;25.89;43.13
71504;BME280;59323;50.874;7.028;2022-08-21T08:17:51;101405.59;;;26.11;42.11
71504;BME280;59323;50.874;7.028;2022-08-21T08:20:17;101398.66;;;26.16;43.69
71504;BME280;59323;50.874;7.028;2022-08-21T08:22:43;101400.13;;;26.30;39.17
71504;BME280;59323;50.874;7.028;2022-08-21T08:25:17;101387.38;;;25.98;40.69
71504;BME280;59323;50.874;7.028;2022-08-21T08:27:51;101377.41;;;25.87;42.73
71504;BME280;59323;50.874;7.028;2022-08-21T08:30:19;101383.19;;;25.93;39.81
71504;BME280;59323;50.874;7.028;2022-08-21T08:32:45;101383.41;;;25.64;41.28
71504;BME280;59323;50.874;7.028;2022-08-21T08:35:11;101379.69;;;25.80;41.88
71504;BME280;59323;50.874;7.028;2022-08-21T08:37:37;101369.13;;;25.75;39.65
71504;BME280;59323;50.874;7.028;2022-08-21T08:40:07;101380.06;;;25.91;41.64
71504;BME280;59323;50.874;7.028;2022-08-21T08:42:35;101378.25;;;26.19;41.43
71504;BME280;59323;50.874;7.028;2022-08-21T08:47:32;101377.91;;;26.17;41.76
71504;BME280;59323;50.874;7.028;2022-08-21T08:50:06;101369.97;;;26.68;40.97
71504;BME280;59323;50.874;7.028;2022-08-21T08:52:41;101369.97;;;26.77;40.57
71504;BME280;59323;50.874;7.028;2022-08-21T08:55:15;101365.75;;;26.64;39.47
71504;BME280;59323;50.874;7.028;2022-08-21T08:57:45;101367.63;;;26.67;40.47
71504;BME280;59323;50.874;7.028;2022-08-21T09:00:14;101356.47;;;26.67;40.67
71504;BME280;59323;50.874;7.028;2022-08-21T09:02:42;101356.91;;;26.65;37.97
71504;BME280;59323;50.874;7.028;2022-08-21T09:05:09;101359.00;;;26.43;37.00
71504;BME280;59323;50.874;7.028;2022-08-21T09:21:34;101337.06;;;27.67;35.74
71504;BME280;59323;50.874;7.028;2022-08-21T09:24:13;101343.69;;;27.88;35.85
71504;BME280;59323;50.874;7.028;2022-08-21T09:26:47;101337.63;;;27.90;35.63
71504;BME280;59323;50.874;7.028;2022-08-21T09:29:17;101334.19;;;28.04;35.73
71504;BME280;59323;50.874;7.028;2022-08-21T09:31:45;101327.91;;;28.27;34.82
71504;BME280;59323;50.874;7.028;2022-08-21T09:34:11;101330.22;;;28.29;33.58
71504;BME280;59323;50.874;7.028;2022-08-21T09:36:47;101336.03;;;28.07;34.69
71504;BME280;59323;50.874;7.028;2022-08-21T09:39:26;101333.75;;;28.38;36.03
71504;BME280;59323;50.874;7.028;2022-08-21T09:42:00;101335.06;;;28.52;34.02
71504;BME280;59323;50.874;7.028;2022-08-21T09:44:32;101327.59;;;28.82;34.67
71504;BME280;59323;50.874;7.028;2022-08-21T09:46:58;101329.47;;;28.85;33.11
71504;BME280;59323;50.874;7.028;2022-08-21T09:49:32;101326.03;;;28.90;34.29
71504;BME280;59323;50.874;7.028;2022-08-21T09:51:59;101331.94;;;28.83;34.36
71504;BME280;59323;50.874;7.028;2022-08-21T09:54:39;101324.09;;;28.72;33.94
71504;BME280;59323;50.874;7.028;2022-08-21T09:59:55;101310.66;;;28.86;31.92
71504;BME280;59323;50.874;7.028;2022-08-21T10:02:34;101307.47;;;28.45;32.59
71504;BME280;59323;50.874;7.028;2022-08-21T10:07:29;101311.94;;;28.52;33.68
71504;BME280;59323;50.874;7.028;2022-08-21T10:10:00;101305.97;;;28.59;33.61
71504;BME280;59323;50.874;7.028;2022-08-21T10:15:18;101295.38;;;28.39;35.53
71504;BME280;59323;50.874;7.028;2022-08-21T10:18:11;101293.22;;;28.34;33.96
71504;BME280;59323;50.874;7.028;2022-08-21T10:26:20;101280.00;;;28.01;33.72
71504;BME280;59323;50.874;7.028;2022-08-21T10:29:12;101282.47;;;28.08;34.13
71504;BME280;59323;50.874;7.028;2022-08-21T10:34:55;101290.66;;;28.78;32.88
71504;BME280;59323;50.874;7.028;2022-08-21T10:40:09;101279.44;;;28.30;33.01
71504;BME280;59323;50.874;7.028;2022-08-21T10:47:49;101266.69;;;28.29;33.33
71504;BME280;59323;50.874;7.028;2022-08-21T10:58:37;101271.22;;;28.98;33.42
71504;BME280;59323;50.874;7.028;2022-08-21T11:01:22;101266.97;;;29.27;32.44
71504;BME280;59323;50.874;7.028;2022-08-21T11:04:12;101251.84;;;28.95;32.58
71504;BME280;59323;50.874;7.028;2022-08-21T11:06:44;101254.84;;;29.06;32.06
71504;BME280;59323;50.874;7.028;2022-08-21T11:09:18;101262.16;;;28.89;31.69
71504;BME280;59323;50.874;7.028;2022-08-21T11:12:02;101263.09;;;28.86;32.07
71504;BME280;59323;50.874;7.028;2022-08-21T11:14:49;101258.56;;;28.64;32.94
71504;BME280;59323;50.874;7.028;2022-08-21T11:17:29;101247.66;;;28.42;32.36
71504;BME280;59323;50.874;7.028;2022-08-21T11:20:14;101254.94;;;28.73;33.05
71504;BME280;59323;50.874;7.028;2022-08-21T11:22:57;101242.78;;;29.00;32.36
71504;BME280;59323;50.874;7.028;2022-08-21T11:25:32;101243.44;;;29.10;31.24
71504;BME280;59323;50.874;7.028;2022-08-21T11:28:06;101247.75;;;29.34;31.13
71504;BME280;59323;50.874;7.028;2022-08-21T11:34:02;101256.00;;;29.14;30.93
71504;BME280;59323;50.874;7.028;2022-08-21T11:37:01;101236.78;;;29.07;32.36
71504;BME280;59323;50.874;7.028;2022-08-21T11:39:38;101247.97;;;28.92;31.61
71504;BME280;59323;50.874;7.028;2022-08-21T11:50:27;101223.88;;;28.47;32.30
71504;BME280;59323;50.874;7.028;2022-08-21T11:58:06;101227.88;;;27.98;32.63
71504;BME280;59323;50.874;7.028;2022-08-21T12:00:38;101234.78;;;28.12;32.70
71504;BME280;59323;50.874;7.028;2022-08-21T12:03:22;101229.47;;;28.23;32.64
71504;BME280;59323;50.874;7.028;2022-08-21T12:06:02;101221.44;;;28.40;33.20
71504;BME280;59323;50.874;7.028;2022-08-21T12:11:23;101223.31;;;28.82;31.47
71504;BME280;59323;50.874;7.028;2022-08-21T12:14:16;101218.84;;;28.99;30.43
71504;BME280;59323;50.874;7.028;2022-08-21T12:16:46;101215.56;;;28.62;31.77
71504;BME280;59323;50.874;7.028;2022-08-21T12:19:31;101209.41;;;28.25;31.92
71504;BME280;59323;50.874;7.028;2022-08-21T12:24:39;101205.47;;;28.55;31.57
71504;BME280;59323;50.874;7.028;2022-08-21T12:29:52;101197.59;;;28.92;31.65
71504;BME280;59323;50.874;7.028;2022-08-21T12:34:52;101206.88;;;29.13;32.19
71504;BME280;59323;50.874;7.028;2022-08-21T12:37:38;101201.66;;;29.21;30.77
71504;BME280;59323;50.874;7.028;2022-08-21T12:40:21;101194.94;;;29.27;30.83
71504;BME280;59323;50.874;7.028;2022-08-21T12:42:50;101196.63;;;29.10;31.47
71504;BME280;59323;50.874;7.028;2022-08-21T12:47:57;101198.81;;;29.45;30.57
71504;BME280;59323;50.874;7.028;2022-08-21T12:50:38;101197.16;;;29.53;29.94
71504;BME280;59323;50.874;7.028;2022-08-21T12:53:34;101196.78;;;29.45;29.10
71504;BME280;59323;50.874;7.028;2022-08-21T12:55:55;101192.50;;;29.06;30.25
71504;BME280;59323;50.874;7.028;2022-08-21T12:58:27;101200.00;;;28.85;30.58
71504;BME280;59323;50.874;7.028;2022-08-21T13:00:57;101189.47;;;28.56;31.56
71504;BME280;59323;50.874;7.028;2022-08-21T13:03:24;101186.84;;;28.52;31.22
71504;BME280;59323;50.874;7.028;2022-08-21T13:05:50;101197.88;;;28.32;31.06
71504;BME280;59323;50.874;7.028;2022-08-21T13:08:19;101190.34;;;28.23;32.96
71504;BME280;59323;50.874;7.028;2022-08-21T13:10:47;101184.75;;;28.23;31.28
71504;BME280;59323;50.874;7.028;2022-08-21T13:13:19;101181.00;;;28.26;32.36
71504;BME280;59323;50.874;7.028;2022-08-21T13:15:45;101179.31;;;28.44;31.19
71504;BME280;59323;50.874;7.028;2022-08-21T13:18:20;101187.19;;;28.30;31.79
71504;BME280;59323;50.874;7.028;2022-08-21T13:20:46;101186.50;;;28.35;32.08
71504;BME280;59323;50.874;7.028;2022-08-21T13:23:26;101184.50;;;28.36;32.30
71504;BME280;59323;50.874;7.028;2022-08-21T13:25:53;101173.44;;;28.41;31.95
71504;BME280;59323;50.874;7.028;2022-08-21T13:28:19;101171.63;;;28.53;30.99
71504;BME280;59323;50.874;7.028;2022-08-21T13:33:12;101172.75;;;27.99;32.88
71504;BME280;59323;50.874;7.028;2022-08-21T13:38:14;101174.72;;;28.07;32.21
71504;BME280;59323;50.874;7.028;2022-08-21T13:40:49;101170.09;;;28.04;32.49
71504;BME280;59323;50.874;7.028;2022-08-21T13:43:17;101178.31;;;28.32;32.83
71504;BME280;59323;50.874;7.028;2022-08-21T13:45:48;101169.53;;;28.15;32.50
71504;BME280;59323;50.874;7.028;2022-08-21T13:48:14;101158.59;;;28.02;32.79
71504;BME280;59323;50.874;7.028;2022-08-21T13:50:40;101163.38;;;28.11;32.40
71504;BME280;59323;50.874;7.028;2022-08-21T13:53:20;101167.78;;;28.27;33.12
71504;BME280;59323;50.874;7.028;2022-08-21T13:55:48;101167.53;;;28.39;31.49
71504;BME280;59323;50.874;7.028;2022-08-21T13:58:24;101167.44;;;28.34;32.07
71504;BME280;59323;50.874;7.028;2022-08-21T14:06:57;101163.91;;;27.91;33.27
71504;BME280;59323;50.874;7.028;2022-08-21T14:09:34;101162.94;;;28.03;32.72
71504;BME280;59323;50.874;7.028;2022-08-21T14:12:36;101154.47;;;27.89;32.93
71504;BME280;59323;50.874;7.028;2022-08-21T14:15:04;101157.91;;;27.84;33.81
71504;BME280;59323;50.874;7.028;2022-08-21T14:17:39;101149.94;;;27.67;33.21
71504;BME280;59323;50.874;7.028;2022-08-21T14:20:13;101145.31;;;27.55;33.37
71504;BME280;59323;50.874;7.028;2022-08-21T14:23:34;101136.25;;;27.36;34.16
71504;BME280;59323;50.874;7.028;2022-08-21T14:26:03;101154.97;;;27.45;34.16
71504;BME280;59323;50.874;7.028;2022-08-21T14:28:40;101136.53;;;27.29;34.09
71504;BME280;59323;50.874;7.028;2022-08-21T14:31:15;101144.19;;;27.20;34.66